sensor_id;sensor_type;location;lat;lon;timestamp;temperature;humidity
8939;DHT22;4504;48.810;9.172;2023-02-15T00:02:02;3.60;99.90
8939;DHT22;4504;48.810;9.172;2023-02-15T00:04:29;3.60;99.90
8939;DHT22;4504;48.810;9.172;2023-02-15T00:07:13;3.50;99.90
8939;DHT22;4504;48.810;9.172;2023-02-15T00:09:40;3.50;99.90
8939;DHT22;4504;48.810;9.172;2023-02-15T00:12:09;3.50;99.90
8939;DHT22;4504;48.810;9.172;2023-02-15T00:14:36;3.50;99.90
8939;DHT22;4504;48.810;9.172;2023-02-15T00:17:03;3.60;99.90
8939;DHT22;4504;48.810;9.172;2023-02-15T00:19:30;3.40;99.90
8939;DHT22;4504;48.810;9.172;2023-02-15T00:21:57;3.40;99.90
8939;DHT22;4504;48.810;9.172;2023-02-15T00:24:25;3.40;99.90
8939;DHT22;4504;48.810;9.172;2023-02-15T00:26:52;3.40;99.90
8939;DHT22;4504;48.810;9.172;2023-02-15T00:29:21;3.40;99.90
8939;DHT22;4504;48.810;9.172;2023-02-15T00:31:48;3.40;99.90
8939;DHT22;4504;48.810;9.172;2023-02-15T00:34:17;3.40;99.90
8939;DHT22;4504;48.810;9.172;2023-02-15T00:36:44;3.30;99.90
8939;DHT22;4504;48.810;9.172;2023-02-15T00:39:14;3.30;99.90
8939;DHT22;4504;48.810;9.172;2023-02-15T00:41:41;3.30;99.90
8939;DHT22;4504;48.810;9.172;2023-02-15T00:44:09;3.30;99.90
8939;DHT22;4504;48.810;9.172;2023-02-15T00:46:37;3.30;99.90
8939;DHT22;4504;48.810;9.172;2023-02-15T00:49:04;3.30;99.90
8939;DHT22;4504;48.810;9.172;2023-02-15T00:51:32;3.30;99.90
8939;DHT22;4504;48.810;9.172;2023-02-15T00:56:29;3.20;99.90
8939;DHT22;4504;48.810;9.172;2023-02-15T00:58:56;3.20;99.90
8939;DHT22;4504;48.810;9.172;2023-02-15T01:01:23;3.10;99.90
8939;DHT22;4504;48.810;9.172;2023-02-15T01:03:52;3.10;99.90
8939;DHT22;4504;48.810;9.172;2023-02-15T01:06:20;3.10;99.90
8939;DHT22;4504;48.810;9.172;2023-02-15T01:08:47;3.00;99.90
8939;DHT22;4504;48.810;9.172;2023-02-15T01:11:16;3.00;99.90
8939;DHT22;4504;48.810;9.172;2023-02-15T01:13:48;3.00;99.90
8939;DHT22;4504;48.810;9.172;2023-02-15T01:16:15;3.00;99.90
8939;DHT22;4504;48.810;9.172;2023-02-15T01:18:43;3.00;99.90
8939;DHT22;4504;48.810;9.172;2023-02-15T01:21:13;3.00;99.90
8939;DHT22;4504;48.810;9.172;2023-02-15T01:23:43;2.90;99.90
8939;DHT22;4504;48.810;9.172;2023-02-15T01:26:12;2.90;99.90
8939;DHT22;4504;48.810;9.172;2023-02-15T01:28:40;3.00;99.90
8939;DHT22;4504;48.810;9.172;2023-02-15T01:31:08;2.90;99.90
8939;DHT22;4504;48.810;9.172;2023-02-15T01:33:37;2.90;99.90
8939;DHT22;4504;48.810;9.172;2023-02-15T01:36:04;2.90;99.90
8939;DHT22;4504;48.810;9.172;2023-02-15T01:38:33;2.80;99.90
8939;DHT22;4504;48.810;9.172;2023-02-15T01:41:01;2.90;99.90
8939;DHT22;4504;48.810;9.172;2023-02-15T01:43:42;2.90;99.90
8939;DHT22;4504;48.810;9.172;2023-02-15T01:46:11;2.80;99.90
8939;DHT22;4504;48.810;9.172;2023-02-15T01:48:42;2.80;99.90
8939;DHT22;4504;48.810;9.172;2023-02-15T01:51:10;2.80;99.90
8939;DHT22;4504;48.810;9.172;2023-02-15T01:53:42;2.80;99.90
8939;DHT22;4504;48.810;9.172;2023-02-15T01:56:15;2.80;99.90
8939;DHT22;4504;48.810;9.172;2023-02-15T01:58:49;2.80;99.90
8939;DHT22;4504;48.810;9.172;2023-02-15T02:01:18;2.80;99.90
8939;DHT22;4504;48.810;9.172;2023-02-15T02:03:53;2.80;99.90
8939;DHT22;4504;48.810;9.172;2023-02-15T02:06:24;2.70;99.90
8939;DHT22;4504;48.810;9.172;2023-02-15T02:08:54;2.60;99.90
8939;DHT22;4504;48.810;9.172;2023-02-15T02:11:22;2.60;99.90
8939;DHT22;4504;48.810;9.172;2023-02-15T02:13:49;2.60;99.90
8939;DHT22;4504;48.810;9.172;2023-02-15T02:16:21;2.50;99.90
8939;DHT22;4504;48.810;9.172;2023-02-15T02:19:01;2.50;99.90
8939;DHT22;4504;48.810;9.172;2023-02-15T02:25:17;2.50;99.90
8939;DHT22;4504;48.810;9.172;2023-02-15T02:27:56;2.50;99.90
8939;DHT22;4504;48.810;9.172;2023-02-15T02:30:49;2.50;99.90
8939;DHT22;4504;48.810;9.172;2023-02-15T02:33:36;2.40;99.90
8939;DHT22;4504;48.810;9.172;2023-02-15T02:36:15;2.40;99.90
8939;DHT22;4504;48.810;9.172;2023-02-15T02:38:59;2.40;99.90
8939;DHT22;4504;48.810;9.172;2023-02-15T02:41:32;2.40;99.90
8939;DHT22;4504;48.810;9.172;2023-02-15T02:44:10;2.30;99.90
8939;DHT22;4504;48.810;9.172;2023-02-15T02:46:47;2.30;99.90
8939;DHT22;4504;48.810;9.172;2023-02-15T02:49:17;2.30;99.90
8939;DHT22;4504;48.810;9.172;2023-02-15T02:51:44;2.20;99.90
8939;DHT22;4504;48.810;9.172;2023-02-15T02:54:11;2.10;99.90
8939;DHT22;4504;48.810;9.172;2023-02-15T02:56:44;2.10;99.90
8939;DHT22;4504;48.810;9.172;2023-02-15T02:59:17;2.10;99.90
8939;DHT22;4504;48.810;9.172;2023-02-15T03:01:48;2.10;99.90
8939;DHT22;4504;48.810;9.172;2023-02-15T03:04:20;2.10;99.90
8939;DHT22;4504;48.810;9.172;2023-02-15T03:06:52;2.10;99.90
8939;DHT22;4504;48.810;9.172;2023-02-15T03:09:25;2.10;99.90
8939;DHT22;4504;48.810;9.172;2023-02-15T03:12:00;2.10;99.90
8939;DHT22;4504;48.810;9.172;2023-02-15T03:14:29;2.10;99.90
8939;DHT22;4504;48.810;9.172;2023-02-15T03:16:57;2.10;99.90
8939;DHT22;4504;48.810;9.172;2023-02-15T03:19:28;2.10;99.90
8939;DHT22;4504;48.810;9.172;2023-02-15T03:21:59;2.10;99.90
8939;DHT22;4504;48.810;9.172;2023-02-15T03:24:36;2.10;99.90
8939;DHT22;4504;48.810;9.172;2023-02-15T03:27:12;2.00;99.90
8939;DHT22;4504;48.810;9.172;2023-02-15T03:29:43;2.00;99.90
8939;DHT22;4504;48.810;9.172;2023-02-15T03:32:11;2.00;99.90
8939;DHT22;4504;48.810;9.172;2023-02-15T03:34:42;2.00;99.90
8939;DHT22;4504;48.810;9.172;2023-02-15T03:37:13;1.90;99.90
8939;DHT22;4504;48.810;9.172;2023-02-15T03:39:45;1.90;99.90
8939;DHT22;4504;48.810;9.172;2023-02-15T03:42:17;1.90;99.90
8939;DHT22;4504;48.810;9.172;2023-02-15T03:44:51;1.80;99.90
8939;DHT22;4504;48.810;9.172;2023-02-15T03:47:23;1.80;99.90
8939;DHT22;4504;48.810;9.172;2023-02-15T03:49:55;1.80;99.90
8939;DHT22;4504;48.810;9.172;2023-02-15T03:52:25;1.80;99.90
8939;DHT22;4504;48.810;9.172;2023-02-15T03:54:53;1.80;99.90
8939;DHT22;4504;48.810;9.172;2023-02-15T03:57:22;1.80;99.90
8939;DHT22;4504;48.810;9.172;2023-02-15T04:00:13;1.70;99.90
8939;DHT22;4504;48.810;9.172;2023-02-15T04:03:19;1.70;99.90
8939;DHT22;4504;48.810;9.172;2023-02-15T04:05:50;1.60;99.90
8939;DHT22;4504;48.810;9.172;2023-02-15T04:08:17;1.60;99.90
8939;DHT22;4504;48.810;9.172;2023-02-15T04:10:44;1.60;99.90
8939;DHT22;4504;48.810;9.172;2023-02-15T04:13:19;1.60;99.90
8939;DHT22;4504;48.810;9.172;2023-02-15T04:15:46;1.60;99.90
8939;DHT22;4504;48.810;9.172;2023-02-15T04:18:31;1.50;99.90
8939;DHT22;4504;48.810;9.172;2023-02-15T04:21:18;1.50;99.90
8939;DHT22;4504;48.810;9.172;2023-02-15T04:24:03;1.50;99.90
8939;DHT22;4504;48.810;9.172;2023-02-15T04:26:48;1.40;99.90
8939;DHT22;4504;48.810;9.172;2023-02-15T04:29:18;1.40;99.90
8939;DHT22;4504;48.810;9.172;2023-02-15T04:31:45;1.40;99.90
8939;DHT22;4504;48.810;9.172;2023-02-15T04:34:12;1.40;99.90
8939;DHT22;4504;48.810;9.172;2023-02-15T04:36:41;1.40;99.90
8939;DHT22;4504;48.810;9.172;2023-02-15T04:39:08;1.40;99.90
8939;DHT22;4504;48.810;9.172;2023-02-15T04:41:35;1.40;99.90
8939;DHT22;4504;48.810;9.172;2023-02-15T04:44:03;1.40;99.90
8939;DHT22;4504;48.810;9.172;2023-02-15T04:46:30;1.40;99.90
8939;DHT22;4504;48.810;9.172;2023-02-15T04:48:57;1.40;99.90
8939;DHT22;4504;48.810;9.172;2023-02-15T04:51:24;1.40;99.90
8939;DHT22;4504;48.810;9.172;2023-02-15T04:53:52;1.30;99.90
8939;DHT22;4504;48.810;9.172;2023-02-15T04:56:20;1.30;99.90
8939;DHT22;4504;48.810;9.172;2023-02-15T04:58:47;1.30;99.90
8939;DHT22;4504;48.810;9.172;2023-02-15T05:01:14;1.30;99.90
8939;DHT22;4504;48.810;9.172;2023-02-15T05:03:41;1.20;99.90
8939;DHT22;4504;48.810;9.172;2023-02-15T05:06:08;1.30;99.90
8939;DHT22;4504;48.810;9.172;2023-02-15T05:08:35;1.10;99.90
8939;DHT22;4504;48.810;9.172;2023-02-15T05:11:03;1.10;99.90
8939;DHT22;4504;48.810;9.172;2023-02-15T05:13:30;1.20;99.90
8939;DHT22;4504;48.810;9.172;2023-02-15T05:15:57;1.10;99.90
8939;DHT22;4504;48.810;9.172;2023-02-15T05:18:24;1.10;99.90
8939;DHT22;4504;48.810;9.172;2023-02-15T05:20:51;1.00;99.90
8939;DHT22;4504;48.810;9.172;2023-02-15T05:23:18;1.00;99.90
8939;DHT22;4504;48.810;9.172;2023-02-15T05:25:49;1.00;99.90
8939;DHT22;4504;48.810;9.172;2023-02-15T05:28:36;1.00;99.90
8939;DHT22;4504;48.810;9.172;2023-02-15T05:31:07;1.00;99.90
8939;DHT22;4504;48.810;9.172;2023-02-15T05:33:34;1.00;99.90
8939;DHT22;4504;48.810;9.172;2023-02-15T05:36:02;1.00;99.90
8939;DHT22;4504;48.810;9.172;2023-02-15T05:38:30;1.00;99.90
8939;DHT22;4504;48.810;9.172;2023-02-15T05:40:57;1.00;99.90
8939;DHT22;4504;48.810;9.172;2023-02-15T05:43:24;1.00;99.90
8939;DHT22;4504;48.810;9.172;2023-02-15T05:45:54;1.00;99.90
8939;DHT22;4504;48.810;9.172;2023-02-15T05:48:25;1.10;99.90
8939;DHT22;4504;48.810;9.172;2023-02-15T05:51:00;1.10;99.90
8939;DHT22;4504;48.810;9.172;2023-02-15T05:53:28;1.20;99.90
8939;DHT22;4504;48.810;9.172;2023-02-15T05:55:55;1.20;99.90
8939;DHT22;4504;48.810;9.172;2023-02-15T05:58:25;1.20;99.90
8939;DHT22;4504;48.810;9.172;2023-02-15T06:00:54;1.20;99.90
8939;DHT22;4504;48.810;9.172;2023-02-15T06:03:22;1.20;99.90
8939;DHT22;4504;48.810;9.172;2023-02-15T06:05:49;1.20;99.90
8939;DHT22;4504;48.810;9.172;2023-02-15T06:08:16;1.20;99.90
8939;DHT22;4504;48.810;9.172;2023-02-15T06:10:43;1.20;99.90
8939;DHT22;4504;48.810;9.172;2023-02-15T06:13:11;1.20;99.90
8939;DHT22;4504;48.810;9.172;2023-02-15T06:15:38;1.20;99.90
8939;DHT22;4504;48.810;9.172;2023-02-15T06:18:06;1.20;99.90
8939;DHT22;4504;48.810;9.172;2023-02-15T06:20:33;1.10;99.90
8939;DHT22;4504;48.810;9.172;2023-02-15T06:23:00;1.10;99.90
8939;DHT22;4504;48.810;9.172;2023-02-15T06:25:27;1.10;99.90
8939;DHT22;4504;48.810;9.172;2023-02-15T06:27:54;1.10;99.90
8939;DHT22;4504;48.810;9.172;2023-02-15T06:30:21;1.10;99.90
8939;DHT22;4504;48.810;9.172;2023-02-15T06:32:48;1.10;99.90
8939;DHT22;4504;48.810;9.172;2023-02-15T06:35:16;1.10;99.90
8939;DHT22;4504;48.810;9.172;2023-02-15T06:37:45;1.10;99.90
8939;DHT22;4504;48.810;9.172;2023-02-15T06:40:13;1.10;99.90
8939;DHT22;4504;48.810;9.172;2023-02-15T06:42:41;1.10;99.90
8939;DHT22;4504;48.810;9.172;2023-02-15T06:45:09;1.10;99.90
8939;DHT22;4504;48.810;9.172;2023-02-15T06:47:36;1.10;99.90
8939;DHT22;4504;48.810;9.172;2023-02-15T06:50:04;1.00;99.90
8939;DHT22;4504;48.810;9.172;2023-02-15T06:52:32;1.00;99.90
8939;DHT22;4504;48.810;9.172;2023-02-15T06:54:59;1.00;99.90
8939;DHT22;4504;48.810;9.172;2023-02-15T06:57:26;1.10;99.90
8939;DHT22;4504;48.810;9.172;2023-02-15T06:59:53;1.10;99.90
8939;DHT22;4504;48.810;9.172;2023-02-15T07:02:20;1.10;99.90
8939;DHT22;4504;48.810;9.172;2023-02-15T07:04:47;1.10;99.90
8939;DHT22;4504;48.810;9.172;2023-02-15T07:07:14;1.10;99.90
8939;DHT22;4504;48.810;9.172;2023-02-15T07:09:43;1.10;99.90
8939;DHT22;4504;48.810;9.172;2023-02-15T07:12:09;1.20;99.90
8939;DHT22;4504;48.810;9.172;2023-02-15T07:14:54;1.20;99.90
8939;DHT22;4504;48.810;9.172;2023-02-15T07:17:21;1.20;99.90
8939;DHT22;4504;48.810;9.172;2023-02-15T07:19:48;1.30;99.90
8939;DHT22;4504;48.810;9.172;2023-02-15T07:22:15;1.30;99.90
8939;DHT22;4504;48.810;9.172;2023-02-15T07:24:43;1.20;99.90
8939;DHT22;4504;48.810;9.172;2023-02-15T07:27:10;1.20;99.90
8939;DHT22;4504;48.810;9.172;2023-02-15T07:29:37;1.30;99.90
8939;DHT22;4504;48.810;9.172;2023-02-15T07:32:04;1.20;99.90
8939;DHT22;4504;48.810;9.172;2023-02-15T07:34:31;1.20;99.90
8939;DHT22;4504;48.810;9.172;2023-02-15T07:36:58;1.20;99.90
8939;DHT22;4504;48.810;9.172;2023-02-15T07:39:25;1.20;99.90
8939;DHT22;4504;48.810;9.172;2023-02-15T07:41:53;1.20;99.90
8939;DHT22;4504;48.810;9.172;2023-02-15T07:44:20;1.20;99.90
8939;DHT22;4504;48.810;9.172;2023-02-15T07:46:47;1.20;99.90
8939;DHT22;4504;48.810;9.172;2023-02-15T07:49:14;1.20;99.90
8939;DHT22;4504;48.810;9.172;2023-02-15T07:51:41;1.20;99.90
8939;DHT22;4504;48.810;9.172;2023-02-15T07:54:08;1.30;99.90
8939;DHT22;4504;48.810;9.172;2023-02-15T07:56:35;1.30;99.90
8939;DHT22;4504;48.810;9.172;2023-02-15T07:59:03;1.30;99.90
8939;DHT22;4504;48.810;9.172;2023-02-15T08:01:32;1.30;99.90
8939;DHT22;4504;48.810;9.172;2023-02-15T08:04:01;1.20;99.90
8939;DHT22;4504;48.810;9.172;2023-02-15T08:06:31;1.30;99.90
8939;DHT22;4504;48.810;9.172;2023-02-15T08:08:59;1.20;99.90
8939;DHT22;4504;48.810;9.172;2023-02-15T08:11:28;1.30;99.90
8939;DHT22;4504;48.810;9.172;2023-02-15T08:13:59;1.30;99.90
8939;DHT22;4504;48.810;9.172;2023-02-15T08:16:31;1.30;99.90
8939;DHT22;4504;48.810;9.172;2023-02-15T08:19:00;1.30;99.90
8939;DHT22;4504;48.810;9.172;2023-02-15T08:21:28;1.20;99.90
8939;DHT22;4504;48.810;9.172;2023-02-15T08:23:56;1.20;99.90
8939;DHT22;4504;48.810;9.172;2023-02-15T08:26:24;1.20;99.90
8939;DHT22;4504;48.810;9.172;2023-02-15T08:28:51;1.10;99.90
8939;DHT22;4504;48.810;9.172;2023-02-15T08:31:18;1.10;99.90
8939;DHT22;4504;48.810;9.172;2023-02-15T08:33:49;1.10;99.90
8939;DHT22;4504;48.810;9.172;2023-02-15T08:36:18;1.20;99.90
8939;DHT22;4504;48.810;9.172;2023-02-15T08:38:45;1.20;99.90
8939;DHT22;4504;48.810;9.172;2023-02-15T08:41:14;1.30;99.90
8939;DHT22;4504;48.810;9.172;2023-02-15T08:43:42;1.30;99.90
8939;DHT22;4504;48.810;9.172;2023-02-15T08:46:10;1.30;99.90
8939;DHT22;4504;48.810;9.172;2023-02-15T08:48:38;1.30;99.90
8939;DHT22;4504;48.810;9.172;2023-02-15T08:51:08;1.30;99.90
8939;DHT22;4504;48.810;9.172;2023-02-15T08:53:36;1.30;99.90
8939;DHT22;4504;48.810;9.172;2023-02-15T08:56:04;1.40;99.90
8939;DHT22;4504;48.810;9.172;2023-02-15T08:58:32;1.40;99.90
8939;DHT22;4504;48.810;9.172;2023-02-15T09:00:59;1.50;99.90
8939;DHT22;4504;48.810;9.172;2023-02-15T09:03:28;1.50;99.90
8939;DHT22;4504;48.810;9.172;2023-02-15T09:05:59;1.50;99.90
8939;DHT22;4504;48.810;9.172;2023-02-15T09:08:28;1.60;99.90
8939;DHT22;4504;48.810;9.172;2023-02-15T09:11:08;1.50;99.90
8939;DHT22;4504;48.810;9.172;2023-02-15T09:13:36;1.50;99.90
8939;DHT22;4504;48.810;9.172;2023-02-15T09:16:06;1.50;99.90
8939;DHT22;4504;48.810;9.172;2023-02-15T09:18:34;1.60;99.90
8939;DHT22;4504;48.810;9.172;2023-02-15T09:21:08;1.60;99.90
8939;DHT22;4504;48.810;9.172;2023-02-15T09:23:37;1.70;99.90
8939;DHT22;4504;48.810;9.172;2023-02-15T09:26:05;1.70;99.90
8939;DHT22;4504;48.810;9.172;2023-02-15T09:28:32;1.70;99.90
8939;DHT22;4504;48.810;9.172;2023-02-15T09:31:07;1.80;99.90
8939;DHT22;4504;48.810;9.172;2023-02-15T09:33:36;1.80;99.90
8939;DHT22;4504;48.810;9.172;2023-02-15T09:36:03;1.90;99.90
8939;DHT22;4504;48.810;9.172;2023-02-15T09:38:30;1.80;99.90
8939;DHT22;4504;48.810;9.172;2023-02-15T09:41:12;1.90;99.90
8939;DHT22;4504;48.810;9.172;2023-02-15T09:43:52;1.90;99.90
8939;DHT22;4504;48.810;9.172;2023-02-15T09:46:40;2.00;99.90
8939;DHT22;4504;48.810;9.172;2023-02-15T09:49:18;2.10;99.90
8939;DHT22;4504;48.810;9.172;2023-02-15T09:52:09;2.10;99.90
8939;DHT22;4504;48.810;9.172;2023-02-15T09:54:49;2.20;99.90
8939;DHT22;4504;48.810;9.172;2023-02-15T09:57:26;2.20;99.90
8939;DHT22;4504;48.810;9.172;2023-02-15T10:00:02;2.30;99.90
8939;DHT22;4504;48.810;9.172;2023-02-15T10:02:49;2.30;99.90
8939;DHT22;4504;48.810;9.172;2023-02-15T10:05:26;2.40;99.90
8939;DHT22;4504;48.810;9.172;2023-02-15T10:08:17;2.40;99.90
8939;DHT22;4504;48.810;9.172;2023-02-15T10:10:50;2.50;99.90
8939;DHT22;4504;48.810;9.172;2023-02-15T10:13:29;2.60;99.90
8939;DHT22;4504;48.810;9.172;2023-02-15T10:16:15;2.70;99.90
8939;DHT22;4504;48.810;9.172;2023-02-15T10:18:55;2.70;99.90
8939;DHT22;4504;48.810;9.172;2023-02-15T10:21:49;2.70;99.90
8939;DHT22;4504;48.810;9.172;2023-02-15T10:24:47;2.80;99.90
8939;DHT22;4504;48.810;9.172;2023-02-15T10:27:19;2.90;99.90
8939;DHT22;4504;48.810;9.172;2023-02-15T10:29:55;3.00;99.90
8939;DHT22;4504;48.810;9.172;2023-02-15T10:32:28;3.10;99.90
8939;DHT22;4504;48.810;9.172;2023-02-15T10:35:01;3.20;99.90
8939;DHT22;4504;48.810;9.172;2023-02-15T10:37:56;3.20;99.90
8939;DHT22;4504;48.810;9.172;2023-02-15T10:40:32;3.30;99.90
8939;DHT22;4504;48.810;9.172;2023-02-15T10:43:20;3.40;99.90
8939;DHT22;4504;48.810;9.172;2023-02-15T10:45:58;3.50;99.90
8939;DHT22;4504;48.810;9.172;2023-02-15T10:48:51;3.60;99.90
8939;DHT22;4504;48.810;9.172;2023-02-15T10:51:28;3.70;99.90
8939;DHT22;4504;48.810;9.172;2023-02-15T10:54:09;3.80;99.90
8939;DHT22;4504;48.810;9.172;2023-02-15T10:56:40;3.90;99.90
8939;DHT22;4504;48.810;9.172;2023-02-15T10:59:31;4.00;99.90
8939;DHT22;4504;48.810;9.172;2023-02-15T11:02:12;4.00;99.90
8939;DHT22;4504;48.810;9.172;2023-02-15T11:04:52;4.10;99.90
8939;DHT22;4504;48.810;9.172;2023-02-15T11:07:24;4.20;99.90
8939;DHT22;4504;48.810;9.172;2023-02-15T11:10:01;4.30;99.90
8939;DHT22;4504;48.810;9.172;2023-02-15T11:12:33;4.30;99.90
8939;DHT22;4504;48.810;9.172;2023-02-15T11:15:02;4.50;99.90
8939;DHT22;4504;48.810;9.172;2023-02-15T11:17:36;4.50;99.90
8939;DHT22;4504;48.810;9.172;2023-02-15T11:20:14;4.50;99.90
8939;DHT22;4504;48.810;9.172;2023-02-15T11:22:48;4.60;99.90
8939;DHT22;4504;48.810;9.172;2023-02-15T11:25:19;4.70;99.90
8939;DHT22;4504;48.810;9.172;2023-02-15T11:27:47;4.70;99.90
8939;DHT22;4504;48.810;9.172;2023-02-15T11:30:17;4.80;99.90
8939;DHT22;4504;48.810;9.172;2023-02-15T11:32:49;4.90;99.90
8939;DHT22;4504;48.810;9.172;2023-02-15T11:35:23;5.00;99.90
8939;DHT22;4504;48.810;9.172;2023-02-15T11:37:57;5.10;99.90
8939;DHT22;4504;48.810;9.172;2023-02-15T11:40:28;5.20;99.90
8939;DHT22;4504;48.810;9.172;2023-02-15T11:43:00;5.30;99.90
8939;DHT22;4504;48.810;9.172;2023-02-15T11:45:30;5.40;99.90
8939;DHT22;4504;48.810;9.172;2023-02-15T11:48:00;5.40;99.90
8939;DHT22;4504;48.810;9.172;2023-02-15T11:50:32;5.50;99.90
8939;DHT22;4504;48.810;9.172;2023-02-15T11:53:01;5.60;99.90
8939;DHT22;4504;48.810;9.172;2023-02-15T11:55:29;5.70;99.90
8939;DHT22;4504;48.810;9.172;2023-02-15T11:58:00;5.80;99.90
8939;DHT22;4504;48.810;9.172;2023-02-15T12:00:34;5.90;99.90
8939;DHT22;4504;48.810;9.172;2023-02-15T12:03:09;6.00;99.90
8939;DHT22;4504;48.810;9.172;2023-02-15T12:05:41;6.20;99.90
8939;DHT22;4504;48.810;9.172;2023-02-15T12:08:15;6.30;99.90
8939;DHT22;4504;48.810;9.172;2023-02-15T12:10:50;6.40;99.90
8939;DHT22;4504;48.810;9.172;2023-02-15T12:13:20;6.50;99.90
8939;DHT22;4504;48.810;9.172;2023-02-15T12:15:50;6.70;99.90
8939;DHT22;4504;48.810;9.172;2023-02-15T12:18:31;6.80;99.90
8939;DHT22;4504;48.810;9.172;2023-02-15T12:21:03;7.00;99.90
8939;DHT22;4504;48.810;9.172;2023-02-15T12:23:31;7.10;99.90
8939;DHT22;4504;48.810;9.172;2023-02-15T12:25:59;7.20;99.90
8939;DHT22;4504;48.810;9.172;2023-02-15T12:28:31;7.30;99.90
8939;DHT22;4504;48.810;9.172;2023-02-15T12:31:00;7.40;99.90
8939;DHT22;4504;48.810;9.172;2023-02-15T12:33:30;7.50;99.90
8939;DHT22;4504;48.810;9.172;2023-02-15T12:36:03;7.60;99.90
8939;DHT22;4504;48.810;9.172;2023-02-15T12:38:31;7.70;99.90
8939;DHT22;4504;48.810;9.172;2023-02-15T12:41:00;7.70;99.90
8939;DHT22;4504;48.810;9.172;2023-02-15T12:43:31;7.80;99.90
8939;DHT22;4504;48.810;9.172;2023-02-15T12:46:21;7.90;99.90
8939;DHT22;4504;48.810;9.172;2023-02-15T12:49:05;8.00;99.90
8939;DHT22;4504;48.810;9.172;2023-02-15T12:51:43;8.00;99.90
8939;DHT22;4504;48.810;9.172;2023-02-15T12:54:35;8.10;99.90
8939;DHT22;4504;48.810;9.172;2023-02-15T12:57:20;8.30;99.90
8939;DHT22;4504;48.810;9.172;2023-02-15T12:59:49;8.30;99.90
8939;DHT22;4504;48.810;9.172;2023-02-15T13:02:23;8.40;99.90
8939;DHT22;4504;48.810;9.172;2023-02-15T13:04:53;8.60;99.90
8939;DHT22;4504;48.810;9.172;2023-02-15T13:07:20;8.50;99.90
8939;DHT22;4504;48.810;9.172;2023-02-15T13:09:48;8.60;99.90
8939;DHT22;4504;48.810;9.172;2023-02-15T13:12:20;8.70;99.90
8939;DHT22;4504;48.810;9.172;2023-02-15T13:14:49;8.80;99.90
8939;DHT22;4504;48.810;9.172;2023-02-15T13:17:20;8.80;99.90
8939;DHT22;4504;48.810;9.172;2023-02-15T13:19:52;8.90;99.90
8939;DHT22;4504;48.810;9.172;2023-02-15T13:22:23;9.00;99.90
8939;DHT22;4504;48.810;9.172;2023-02-15T13:24:53;9.10;99.90
8939;DHT22;4504;48.810;9.172;2023-02-15T13:27:23;9.10;99.90
8939;DHT22;4504;48.810;9.172;2023-02-15T13:29:53;9.20;99.90
8939;DHT22;4504;48.810;9.172;2023-02-15T13:32:28;9.30;99.90
8939;DHT22;4504;48.810;9.172;2023-02-15T13:34:59;9.40;99.90
8939;DHT22;4504;48.810;9.172;2023-02-15T13:37:45;9.40;99.90
8939;DHT22;4504;48.810;9.172;2023-02-15T13:40:19;9.50;99.90
8939;DHT22;4504;48.810;9.172;2023-02-15T13:42:54;9.50;99.90
8939;DHT22;4504;48.810;9.172;2023-02-15T13:45:37;9.60;99.90
8939;DHT22;4504;48.810;9.172;2023-02-15T13:48:13;9.60;99.90
8939;DHT22;4504;48.810;9.172;2023-02-15T13:50:56;9.70;99.90
8939;DHT22;4504;48.810;9.172;2023-02-15T13:53:48;9.80;99.90
8939;DHT22;4504;48.810;9.172;2023-02-15T13:56:28;9.90;99.90
8939;DHT22;4504;48.810;9.172;2023-02-15T13:59:15;10.00;99.90
8939;DHT22;4504;48.810;9.172;2023-02-15T14:01:48;10.10;99.90
8939;DHT22;4504;48.810;9.172;2023-02-15T14:07:33;10.20;99.90
8939;DHT22;4504;48.810;9.172;2023-02-15T14:10:16;10.30;99.90
8939;DHT22;4504;48.810;9.172;2023-02-15T14:12:59;10.40;99.90
8939;DHT22;4504;48.810;9.172;2023-02-15T14:15:35;10.40;99.90
8939;DHT22;4504;48.810;9.172;2023-02-15T14:18:15;10.60;99.90
8939;DHT22;4504;48.810;9.172;2023-02-15T14:20:51;10.60;99.90
8939;DHT22;4504;48.810;9.172;2023-02-15T14:23:37;10.60;99.80
8939;DHT22;4504;48.810;9.172;2023-02-15T14:26:14;10.70;99.60
8939;DHT22;4504;48.810;9.172;2023-02-15T14:28:45;10.80;99.50
8939;DHT22;4504;48.810;9.172;2023-02-15T14:31:29;10.80;99.20
8939;DHT22;4504;48.810;9.172;2023-02-15T14:33:57;10.90;99.20
8939;DHT22;4504;48.810;9.172;2023-02-15T14:36:25;10.90;99.20
8939;DHT22;4504;48.810;9.172;2023-02-15T14:39:07;11.00;99.00
8939;DHT22;4504;48.810;9.172;2023-02-15T14:42:03;11.10;98.80
8939;DHT22;4504;48.810;9.172;2023-02-15T14:44:36;11.20;98.40
8939;DHT22;4504;48.810;9.172;2023-02-15T14:47:09;11.20;97.90
8939;DHT22;4504;48.810;9.172;2023-02-15T14:49:38;11.30;97.70
8939;DHT22;4504;48.810;9.172;2023-02-15T14:52:06;11.30;97.70
8939;DHT22;4504;48.810;9.172;2023-02-15T14:55:00;11.30;97.40
8939;DHT22;4504;48.810;9.172;2023-02-15T14:57:29;11.30;97.40
8939;DHT22;4504;48.810;9.172;2023-02-15T14:59:59;11.40;97.10
8939;DHT22;4504;48.810;9.172;2023-02-15T15:02:29;11.30;97.00
8939;DHT22;4504;48.810;9.172;2023-02-15T15:05:07;11.40;96.80
8939;DHT22;4504;48.810;9.172;2023-02-15T15:07:38;11.50;96.60
8939;DHT22;4504;48.810;9.172;2023-02-15T15:10:34;11.50;96.90
8939;DHT22;4504;48.810;9.172;2023-02-15T15:16:29;11.60;96.30
8939;DHT22;4504;48.810;9.172;2023-02-15T15:18:56;11.60;96.00
8939;DHT22;4504;48.810;9.172;2023-02-15T15:21:52;11.70;96.00
8939;DHT22;4504;48.810;9.172;2023-02-15T15:24:47;11.60;95.70
8939;DHT22;4504;48.810;9.172;2023-02-15T15:27:38;11.70;95.80
8939;DHT22;4504;48.810;9.172;2023-02-15T15:33:13;11.60;95.70
8939;DHT22;4504;48.810;9.172;2023-02-15T15:35:59;11.60;95.20
8939;DHT22;4504;48.810;9.172;2023-02-15T15:38:42;11.60;95.20
8939;DHT22;4504;48.810;9.172;2023-02-15T15:41:19;11.50;95.20
8939;DHT22;4504;48.810;9.172;2023-02-15T15:44:17;11.40;95.20
8939;DHT22;4504;48.810;9.172;2023-02-15T15:47:13;11.30;95.30
8939;DHT22;4504;48.810;9.172;2023-02-15T15:49:46;11.30;95.70
8939;DHT22;4504;48.810;9.172;2023-02-15T15:52:15;11.10;95.90
8939;DHT22;4504;48.810;9.172;2023-02-15T15:54:44;11.00;95.60
8939;DHT22;4504;48.810;9.172;2023-02-15T15:57:15;10.90;95.80
8939;DHT22;4504;48.810;9.172;2023-02-15T15:59:45;10.90;96.00
8939;DHT22;4504;48.810;9.172;2023-02-15T16:02:15;10.80;96.30
8939;DHT22;4504;48.810;9.172;2023-02-15T16:04:43;10.70;96.70
8939;DHT22;4504;48.810;9.172;2023-02-15T16:07:23;10.60;97.20
8939;DHT22;4504;48.810;9.172;2023-02-15T16:09:55;10.60;97.60
8939;DHT22;4504;48.810;9.172;2023-02-15T16:12:24;10.50;97.90
8939;DHT22;4504;48.810;9.172;2023-02-15T16:14:54;10.40;98.00
8939;DHT22;4504;48.810;9.172;2023-02-15T16:17:25;10.40;98.20
8939;DHT22;4504;48.810;9.172;2023-02-15T16:19:59;10.30;98.30
8939;DHT22;4504;48.810;9.172;2023-02-15T16:22:28;10.30;98.50
8939;DHT22;4504;48.810;9.172;2023-02-15T16:25:15;10.30;98.70
8939;DHT22;4504;48.810;9.172;2023-02-15T16:27:45;10.20;98.90
8939;DHT22;4504;48.810;9.172;2023-02-15T16:30:26;10.10;99.20
8939;DHT22;4504;48.810;9.172;2023-02-15T16:32:55;10.10;99.30
8939;DHT22;4504;48.810;9.172;2023-02-15T16:35:29;10.00;99.50
8939;DHT22;4504;48.810;9.172;2023-02-15T16:37:56;10.00;99.80
8939;DHT22;4504;48.810;9.172;2023-02-15T16:40:35;9.90;99.90
8939;DHT22;4504;48.810;9.172;2023-02-15T16:43:06;9.90;99.90
8939;DHT22;4504;48.810;9.172;2023-02-15T16:45:38;9.80;99.90
8939;DHT22;4504;48.810;9.172;2023-02-15T16:48:07;9.80;99.90
8939;DHT22;4504;48.810;9.172;2023-02-15T16:50:37;9.70;99.90
8939;DHT22;4504;48.810;9.172;2023-02-15T16:53:06;9.70;99.90
8939;DHT22;4504;48.810;9.172;2023-02-15T16:55:41;9.60;99.90
8939;DHT22;4504;48.810;9.172;2023-02-15T16:58:15;9.50;99.90
8939;DHT22;4504;48.810;9.172;2023-02-15T17:00:44;9.50;99.90
8939;DHT22;4504;48.810;9.172;2023-02-15T17:03:21;9.40;99.90
8939;DHT22;4504;48.810;9.172;2023-02-15T17:05:50;9.40;99.90